createdAt,value
2023-07-11T00:01:15.132Z,100800.53
2023-07-11T00:03:42.955Z,100804.41
2023-07-11T00:06:17.484Z,100805.03
2023-07-11T00:08:46.872Z,100809.97
2023-07-11T00:11:19.260Z,100798.00
2023-07-11T00:13:47.187Z,100800.88
2023-07-11T00:16:16.792Z,100796.13
2023-07-11T00:18:45.215Z,100793.84
2023-07-11T00:21:13.278Z,100795.25
2023-07-11T00:23:43.177Z,100793.81
2023-07-11T00:26:12.472Z,100785.38
2023-07-11T00:28:40.258Z,100785.56
2023-07-11T00:31:08.300Z,100778.94
2023-07-11T00:33:38.068Z,100780.19
2023-07-11T00:36:07.849Z,100778.72
2023-07-11T00:38:36.024Z,100769.06
2023-07-11T00:41:03.881Z,100773.97
2023-07-11T00:43:33.056Z,100773.34
2023-07-11T00:46:05.965Z,100768.81
2023-07-11T00:48:37.144Z,100768.00
2023-07-11T00:51:07.515Z,100773.97
2023-07-11T00:53:36.543Z,100760.63
2023-07-11T00:56:08.193Z,100760.63
2023-07-11T00:58:39.583Z,100757.13
2023-07-11T01:01:08.050Z,100758.97
2023-07-11T01:03:36.482Z,100757.31
2023-07-11T01:06:04.936Z,100766.34
2023-07-11T01:08:33.104Z,100757.91
2023-07-11T01:11:00.903Z,100758.09
2023-07-11T01:13:28.803Z,100752.97
2023-07-11T01:15:57.890Z,100755.00
2023-07-11T01:18:25.673Z,100750.88
2023-07-11T01:20:53.577Z,100747.97
2023-07-11T01:23:24.681Z,100740.34
2023-07-11T01:25:52.448Z,100736.41
2023-07-11T01:28:21.947Z,100735.16
2023-07-11T01:30:49.952Z,100736.56
2023-07-11T01:33:17.716Z,100729.97
2023-07-11T01:35:45.464Z,100724.19
2023-07-11T01:38:13.193Z,100724.41
2023-07-11T01:40:42.348Z,100721.28
2023-07-11T01:43:10.366Z,100712.03
2023-07-11T01:45:38.252Z,100718.38
2023-07-11T01:48:06.690Z,100713.56
2023-07-11T01:50:34.535Z,100709.47
2023-07-11T01:53:02.296Z,100707.19
2023-07-11T01:55:30.094Z,100707.78
2023-07-11T01:57:59.453Z,100707.97
2023-07-11T02:00:27.241Z,100707.31
2023-07-11T02:02:55.819Z,100704.84
2023-07-11T02:05:24.421Z,100704.41
2023-07-11T02:07:52.229Z,100714.25
2023-07-11T02:10:20.025Z,100710.13
2023-07-11T02:12:47.818Z,100712.38
2023-07-11T02:15:16.974Z,100711.72
2023-07-11T02:17:45.681Z,100712.09
2023-07-11T02:20:13.777Z,100706.34
2023-07-11T02:22:42.307Z,100705.50
2023-07-11T02:25:10.528Z,100705.09
2023-07-11T02:27:38.396Z,100702.41
2023-07-11T02:30:07.432Z,100696.03
2023-07-11T02:32:36.756Z,100701.59
2023-07-11T02:35:04.667Z,100697.47
2023-07-11T02:37:32.705Z,100695.16
2023-07-11T02:40:00.478Z,100686.34
2023-07-11T02:42:28.168Z,100687.56
2023-07-11T02:44:55.918Z,100691.44
2023-07-11T02:47:23.797Z,100680.34
2023-07-11T02:49:52.905Z,100685.03
2023-07-11T02:52:20.621Z,100682.72
2023-07-11T02:54:48.519Z,100686.63
2023-07-11T02:57:16.290Z,100685.78
2023-07-11T02:59:44.031Z,100677.97
2023-07-11T03:02:11.812Z,100675.69
2023-07-11T03:04:39.600Z,100681.22
2023-07-11T03:07:08.893Z,100683.25
2023-07-11T03:09:38.216Z,100676.28
2023-07-11T03:12:07.104Z,100672.78
2023-07-11T03:14:34.879Z,100673.78
2023-07-11T03:17:02.925Z,100672.13
2023-07-11T03:19:30.719Z,100671.31
2023-07-11T03:21:58.469Z,100667.00
2023-07-11T03:24:27.599Z,100659.22
2023-07-11T03:26:55.284Z,100664.31
2023-07-11T03:29:22.994Z,100656.78
2023-07-11T03:31:51.060Z,100655.78
2023-07-11T03:34:19.052Z,100654.53
2023-07-11T03:36:46.771Z,100651.69
2023-07-11T03:39:14.677Z,100651.13
2023-07-11T03:41:43.698Z,100643.56
2023-07-11T03:44:12.426Z,100638.69
2023-07-11T03:46:40.237Z,100637.09
2023-07-11T03:49:08.381Z,100635.88
2023-07-11T03:51:36.108Z,100630.16
2023-07-11T03:54:04.182Z,100625.06
2023-07-11T03:56:31.982Z,100634.97
2023-07-11T03:59:01.294Z,100625.16
2023-07-11T04:01:29.044Z,100627.88
2023-07-11T04:03:56.997Z,100625.06
2023-07-11T04:06:24.750Z,100619.56
2023-07-11T04:08:52.473Z,100625.38
2023-07-11T04:11:20.194Z,100621.91
2023-07-11T04:13:47.989Z,100621.75
2023-07-11T04:16:17.221Z,100622.63
2023-07-11T04:18:44.922Z,100616.09
2023-07-11T04:21:12.679Z,100610.38
2023-07-11T04:23:40.354Z,100604.09
2023-07-11T04:26:08.989Z,100607.44
2023-07-11T04:28:36.769Z,100600.66
2023-07-11T04:31:05.186Z,100588.94
2023-07-11T04:33:34.466Z,100586.50
2023-07-11T04:36:11.445Z,100584.44
2023-07-11T04:38:39.800Z,100582.56
2023-07-11T04:41:07.994Z,100589.38
2023-07-11T04:43:35.987Z,100583.00
2023-07-11T04:46:06.696Z,100581.34
2023-07-11T04:48:37.639Z,100575.78
2023-07-11T04:51:09.330Z,100577.00
2023-07-11T04:53:37.343Z,100574.28
2023-07-11T04:56:07.483Z,100578.22
2023-07-11T04:58:36.570Z,100575.72
2023-07-11T05:01:06.322Z,100566.84
2023-07-11T05:03:34.260Z,100558.78
2023-07-11T05:06:05.082Z,100554.84
2023-07-11T05:08:33.572Z,100548.25
2023-07-11T05:11:04.497Z,100555.44
2023-07-11T05:13:33.480Z,100545.47
2023-07-11T05:16:01.928Z,100549.47
2023-07-11T05:18:30.140Z,100540.50
2023-07-11T05:20:59.061Z,100545.88
2023-07-11T05:23:31.244Z,100541.66
2023-07-11T05:25:59.366Z,100535.78
2023-07-11T05:28:27.277Z,100536.00
2023-07-11T05:30:56.830Z,100522.88
2023-07-11T05:33:24.981Z,100530.03
2023-07-11T05:36:02.376Z,100521.41
2023-07-11T05:38:31.466Z,100524.09
2023-07-11T05:40:59.243Z,100518.09
2023-07-11T05:43:27.101Z,100522.00
2023-07-11T05:45:55.006Z,100514.53
2023-07-11T05:48:23.069Z,100512.84
2023-07-11T05:51:02.500Z,100511.16
2023-07-11T05:53:31.675Z,100507.47
2023-07-11T05:55:59.907Z,100509.41
2023-07-11T05:58:28.279Z,100510.75
2023-07-11T06:00:57.476Z,100500.91
2023-07-11T06:03:26.649Z,100495.13
2023-07-11T06:05:56.362Z,100489.84
2023-07-11T06:08:24.132Z,100495.88
2023-07-11T06:10:53.204Z,100491.34
2023-07-11T06:13:20.848Z,100481.91
2023-07-11T06:15:48.763Z,100480.59
2023-07-11T06:18:16.435Z,100478.44
2023-07-11T06:20:44.179Z,100476.81
2023-07-11T06:23:11.949Z,100479.53
2023-07-11T06:25:40.672Z,100483.28
2023-07-11T06:28:09.804Z,100476.50
2023-07-11T06:30:37.509Z,100479.72
2023-07-11T06:33:05.340Z,100474.56
2023-07-11T06:35:33.131Z,100475.88
2023-07-11T06:38:00.831Z,100469.94
2023-07-11T06:40:28.701Z,100461.81
2023-07-11T06:42:56.382Z,100460.19
2023-07-11T06:45:25.571Z,100467.72
2023-07-11T06:47:53.482Z,100466.06
2023-07-11T06:50:21.818Z,100461.50
2023-07-11T06:52:50.768Z,100455.84
2023-07-11T06:55:18.556Z,100461.00
2023-07-11T06:57:46.341Z,100451.00
2023-07-11T07:00:15.020Z,100439.38
2023-07-11T07:02:44.171Z,100449.66
2023-07-11T07:05:12.125Z,100448.34
2023-07-11T07:07:39.932Z,100438.63
2023-07-11T07:10:09.392Z,100436.00
2023-07-11T07:12:37.179Z,100429.25
2023-07-11T07:15:05.300Z,100432.28
2023-07-11T07:17:33.120Z,100436.91
2023-07-11T07:20:02.299Z,100426.97
2023-07-11T07:22:30.166Z,100422.66
2023-07-11T07:24:57.944Z,100428.41
2023-07-11T07:27:28.842Z,100427.63
2023-07-11T07:29:57.409Z,100424.19
2023-07-11T07:32:25.238Z,100419.06
2023-07-11T07:34:53.053Z,100425.31
2023-07-11T07:37:22.172Z,100420.00
2023-07-11T07:39:49.909Z,100412.97
2023-07-11T07:42:17.614Z,100413.56
2023-07-11T07:44:45.497Z,100411.44
2023-07-11T07:47:13.317Z,100399.84
2023-07-11T07:49:53.881Z,100403.66
2023-07-11T07:52:24.350Z,100400.44
2023-07-11T07:54:52.603Z,100404.00
2023-07-11T07:57:20.567Z,100403.22
2023-07-11T07:59:48.264Z,100394.84
2023-07-11T08:02:16.039Z,100394.88
2023-07-11T08:04:43.820Z,100390.00
2023-07-11T08:07:11.629Z,100388.38
2023-07-11T08:09:40.745Z,100388.44
2023-07-11T08:12:09.980Z,100383.63
2023-07-11T08:14:38.476Z,100381.44
2023-07-11T08:17:07.816Z,100374.94
2023-07-11T08:19:35.661Z,100378.50
2023-07-11T08:22:03.466Z,100371.19
2023-07-11T08:24:31.331Z,100370.41
2023-07-11T08:27:00.510Z,100362.84
2023-07-11T08:29:30.561Z,100359.06
2023-07-11T08:31:59.437Z,100360.44
2023-07-11T08:34:27.241Z,100365.56
2023-07-11T08:36:55.367Z,100352.56
2023-07-11T08:39:24.414Z,100351.72
2023-07-11T08:41:53.997Z,100350.38
2023-07-11T08:44:31.375Z,100344.75
2023-07-11T08:47:04.554Z,100341.75
2023-07-11T08:49:38.976Z,100333.09
2023-07-11T08:52:10.830Z,100342.03
2023-07-11T08:54:49.708Z,100337.41
2023-07-11T08:57:20.368Z,100334.69
2023-07-11T09:00:00.946Z,100338.75
2023-07-11T09:02:36.763Z,100333.56
2023-07-11T09:05:10.354Z,100331.66
2023-07-11T09:07:40.562Z,100337.09
2023-07-11T09:10:47.748Z,100331.09
2023-07-11T09:13:30.988Z,100328.69
2023-07-11T09:16:09.050Z,100330.56
2023-07-11T09:18:47.490Z,100321.63
2023-07-11T09:21:21.869Z,100310.72
2023-07-11T09:24:05.757Z,100324.53
2023-07-11T09:26:48.454Z,100312.56
2023-07-11T09:29:17.337Z,100323.41
2023-07-11T09:31:52.902Z,100319.56
2023-07-11T09:34:25.225Z,100317.38
2023-07-11T09:36:53.935Z,100312.19
2023-07-11T09:39:31.654Z,100306.72
2023-07-11T09:42:06.911Z,100303.72
2023-07-11T09:44:34.655Z,100304.00
2023-07-11T09:47:17.368Z,100299.38
2023-07-11T09:49:47.041Z,100295.84
2023-07-11T09:52:27.392Z,100294.72
2023-07-11T09:55:07.724Z,100283.78
2023-07-11T09:57:37.587Z,100282.72
2023-07-11T10:02:38.974Z,100276.63
2023-07-11T10:05:06.870Z,100273.78
2023-07-11T10:07:35.573Z,100268.72
2023-07-11T10:10:04.816Z,100268.84
2023-07-11T10:12:32.704Z,100270.34
2023-07-11T10:15:05.428Z,100262.81
2023-07-11T10:17:35.260Z,100268.47
2023-07-11T10:20:16.753Z,100261.28
2023-07-11T10:22:50.056Z,100262.09
2023-07-11T10:25:21.778Z,100259.50
2023-07-11T10:27:56.011Z,100259.31
2023-07-11T10:30:27.170Z,100254.50
2023-07-11T10:33:08.495Z,100258.41
2023-07-11T10:35:56.209Z,100254.66
2023-07-11T10:38:30.121Z,100251.72
2023-07-11T10:41:02.803Z,100244.28
2023-07-11T10:43:34.144Z,100243.47
2023-07-11T10:46:05.955Z,100247.81
2023-07-11T10:48:40.297Z,100252.63
2023-07-11T10:51:13.021Z,100250.59
2023-07-11T10:53:44.954Z,100243.88
2023-07-11T10:56:20.309Z,100237.34
2023-07-11T10:58:49.783Z,100236.84
2023-07-11T11:01:27.698Z,100234.00
2023-07-11T11:04:06.793Z,100229.88
2023-07-11T11:06:51.191Z,100233.78
2023-07-11T11:09:24.183Z,100235.59
2023-07-11T11:12:01.270Z,100223.28
2023-07-11T11:14:42.690Z,100221.13
2023-07-11T11:17:28.673Z,100211.72
2023-07-11T11:20:11.428Z,100201.84
2023-07-11T11:22:53.118Z,100207.03
2023-07-11T11:25:30.750Z,100200.25
2023-07-11T11:28:12.078Z,100196.63
2023-07-11T11:30:50.003Z,100191.91
2023-07-11T11:33:29.613Z,100193.22
2023-07-11T11:36:19.941Z,100187.25
2023-07-11T11:39:07.165Z,100185.81
2023-07-11T11:41:38.558Z,100177.94
2023-07-11T11:46:52.578Z,100171.16
2023-07-11T11:49:41.533Z,100171.91
2023-07-11T11:52:10.324Z,100165.41
2023-07-11T11:54:44.061Z,100164.03
2023-07-11T11:57:20.352Z,100166.22
2023-07-11T11:59:48.114Z,100168.22
2023-07-11T12:02:19.874Z,100159.44
2023-07-11T12:05:03.875Z,100160.84
2023-07-11T12:07:35.648Z,100161.06
2023-07-11T12:10:20.650Z,100151.91
2023-07-11T12:13:18.310Z,100142.78
2023-07-11T12:15:50.823Z,100145.94
2023-07-11T12:18:40.101Z,100140.72
2023-07-11T12:21:19.593Z,100131.66
2023-07-11T12:24:26.336Z,100125.38
2023-07-11T12:26:38.474Z,100133.53
2023-07-11T12:29:32.136Z,100130.22
2023-07-11T12:32:45.778Z,100124.84
2023-07-11T12:35:20.159Z,100132.84
2023-07-11T12:38:05.096Z,100132.28
2023-07-11T12:40:40.863Z,100122.34
2023-07-11T12:43:17.256Z,100123.22
2023-07-11T12:45:49.854Z,100129.75
2023-07-11T12:48:19.942Z,100133.50
2023-07-11T12:50:49.344Z,100118.41
2023-07-11T12:53:17.791Z,100115.00
2023-07-11T12:55:47.061Z,100115.00
2023-07-11T12:58:22.581Z,100110.81
2023-07-11T13:00:51.519Z,100100.25
2023-07-11T13:03:25.784Z,100101.72
2023-07-11T13:06:10.964Z,100095.91
2023-07-11T13:08:44.352Z,100100.91
2023-07-11T13:11:21.500Z,100094.53
2023-07-11T13:13:51.438Z,100084.00
2023-07-11T13:16:23.187Z,100085.50
2023-07-11T13:18:52.816Z,100081.50
2023-07-11T13:21:21.722Z,100085.09
2023-07-11T13:23:50.867Z,100081.47
2023-07-11T13:26:21.982Z,100084.16
2023-07-11T13:29:04.764Z,100082.66
2023-07-11T13:31:34.697Z,100091.50
2023-07-11T13:34:04.473Z,100077.44
2023-07-11T13:36:36.165Z,100077.03
2023-07-11T13:39:07.392Z,100064.09
2023-07-11T13:41:40.594Z,100066.72
2023-07-11T13:44:17.947Z,100063.59
2023-07-11T13:46:47.709Z,100059.66
2023-07-11T13:49:21.248Z,100060.66
2023-07-11T13:51:49.765Z,100066.53
2023-07-11T13:54:22.233Z,100063.59
2023-07-11T13:56:50.508Z,100057.09
2023-07-11T14:01:55.292Z,100055.06
2023-07-11T14:04:28.411Z,100051.53
2023-07-11T14:06:56.435Z,100045.25
2023-07-11T14:09:24.273Z,100045.47
2023-07-11T14:11:52.009Z,100045.47
2023-07-11T14:16:56.744Z,100040.22
2023-07-11T14:19:26.737Z,100044.03
2023-07-11T14:21:55.099Z,100037.78
2023-07-11T14:24:22.873Z,100033.75
2023-07-11T14:26:50.686Z,100029.13
2023-07-11T14:29:25.495Z,100034.56
2023-07-11T14:31:54.818Z,100022.56
2023-07-11T14:34:24.168Z,100021.41
2023-07-11T14:36:52.979Z,100007.78
2023-07-11T14:39:22.328Z,100009.41
2023-07-11T14:41:51.469Z,100008.28
2023-07-11T14:44:25.117Z,100020.00
2023-07-11T14:46:53.505Z,100010.19
2023-07-11T14:49:22.058Z,100003.94
2023-07-11T14:51:51.198Z,100000.09
2023-07-11T14:54:20.438Z,99991.31
2023-07-11T14:59:26.862Z,99987.47
2023-07-11T15:01:55.833Z,99992.66
2023-07-11T15:06:59.304Z,99981.13
2023-07-11T15:14:39.451Z,99976.38
2023-07-11T15:17:47.147Z,99976.59
2023-07-11T15:20:16.979Z,99965.16
2023-07-11T15:22:46.782Z,99962.44
2023-07-11T15:25:17.282Z,99964.56
2023-07-11T15:27:45.228Z,99967.75
2023-07-11T15:30:18.514Z,99958.16
2023-07-11T15:32:46.815Z,99949.38
2023-07-11T15:35:16.389Z,99953.09
2023-07-11T15:37:45.030Z,99946.41
2023-07-11T15:40:20.648Z,99946.78
2023-07-11T15:42:50.543Z,99946.06
2023-07-11T15:45:24.370Z,99944.94
2023-07-11T15:47:52.495Z,99940.78
2023-07-11T15:50:22.873Z,99947.38
2023-07-11T15:52:51.123Z,99944.34
2023-07-11T15:55:20.542Z,99940.28
2023-07-11T15:57:51.039Z,99937.34
2023-07-11T16:00:22.703Z,99934.44
2023-07-11T16:02:50.935Z,99923.31
2023-07-11T16:05:20.176Z,99927.66
2023-07-11T16:07:48.917Z,99916.75
2023-07-11T16:10:23.862Z,99919.81
2023-07-11T16:12:51.734Z,99909.66
2023-07-11T16:15:21.644Z,99907.28
2023-07-11T16:17:52.189Z,99902.13
2023-07-11T16:20:22.336Z,99898.28
2023-07-11T16:22:50.733Z,99904.28
2023-07-11T16:25:21.522Z,99899.41
2023-07-11T16:27:54.758Z,99903.25
2023-07-11T16:30:26.222Z,99890.00
2023-07-11T16:32:56.134Z,99889.75
2023-07-11T16:35:27.861Z,99887.69
2023-07-11T16:38:02.743Z,99887.09
2023-07-11T16:40:31.834Z,99878.19
2023-07-11T16:42:59.927Z,99878.91
2023-07-11T16:45:34.106Z,99868.31
2023-07-11T16:48:03.456Z,99868.84
2023-07-11T16:50:34.629Z,99863.06
2023-07-11T16:53:06.417Z,99866.31
2023-07-11T16:55:34.810Z,99856.69
2023-07-11T16:58:02.591Z,99856.53
2023-07-11T17:00:31.728Z,99852.88
2023-07-11T17:03:01.133Z,99847.59
2023-07-11T17:05:29.278Z,99845.50
2023-07-11T17:07:57.181Z,99845.97
2023-07-11T17:10:25.016Z,99841.31
2023-07-11T17:12:52.754Z,99831.81
2023-07-11T17:15:21.419Z,99831.31
2023-07-11T17:17:50.799Z,99828.09
2023-07-11T17:20:21.678Z,99817.16
2023-07-11T17:22:49.887Z,99818.78
2023-07-11T17:25:19.484Z,99812.31
2023-07-11T17:27:51.036Z,99807.66
2023-07-11T17:30:21.213Z,99808.78
2023-07-11T17:32:50.847Z,99799.91
2023-07-11T17:35:19.130Z,99802.66
2023-07-11T17:37:49.546Z,99789.78
2023-07-11T17:40:20.144Z,99789.94
2023-07-11T17:42:48.045Z,99786.91
2023-07-11T17:45:20.377Z,99785.44
2023-07-11T17:48:16.311Z,99774.81
2023-07-11T17:50:46.797Z,99776.09
2023-07-11T17:53:15.009Z,99776.72
2023-07-11T17:55:42.972Z,99780.13
2023-07-11T17:58:21.614Z,99778.19
2023-07-11T18:00:50.004Z,99773.34
2023-07-11T18:03:19.220Z,99772.38
2023-07-11T18:05:47.991Z,99770.44
2023-07-11T18:08:17.307Z,99764.50
2023-07-11T18:10:46.292Z,99760.00
2023-07-11T18:13:15.133Z,99759.69
2023-07-11T18:15:45.978Z,99748.91
2023-07-11T18:18:24.817Z,99749.72
2023-07-11T18:20:53.195Z,99742.00
2023-07-11T18:23:20.963Z,99737.16
2023-07-11T18:25:49.216Z,99731.31
2023-07-11T18:28:18.629Z,99726.75
2023-07-11T18:30:46.937Z,99720.88
2023-07-11T18:33:15.518Z,99714.25
2023-07-11T18:35:46.260Z,99717.19
2023-07-11T18:38:17.057Z,99709.06
2023-07-11T18:40:46.682Z,99703.94
2023-07-11T18:43:14.662Z,99700.38
2023-07-11T18:45:45.113Z,99705.81
2023-07-11T18:48:15.187Z,99707.69
2023-07-11T18:50:45.111Z,99696.72
2023-07-11T18:53:13.389Z,99704.53
2023-07-11T18:55:44.552Z,99704.94
2023-07-11T18:58:13.475Z,99703.41
2023-07-11T19:00:45.037Z,99710.03
2023-07-11T19:03:12.901Z,99706.53
2023-07-11T19:05:41.224Z,99707.91
2023-07-11T19:08:17.979Z,99696.97
2023-07-11T19:10:45.837Z,99697.22
2023-07-11T19:13:14.034Z,99699.59
2023-07-11T19:15:44.397Z,99684.28
2023-07-11T19:18:17.970Z,99671.72
2023-07-11T19:20:46.000Z,99670.84
2023-07-11T19:23:19.385Z,99665.03
2023-07-11T19:25:49.911Z,99655.44
2023-07-11T19:28:21.172Z,99655.13
2023-07-11T19:30:51.194Z,99645.56
2023-07-11T19:33:19.764Z,99639.78
2023-07-11T19:35:51.226Z,99637.47
2023-07-11T19:38:22.161Z,99635.22
2023-07-11T19:40:50.352Z,99636.44
2023-07-11T19:43:18.351Z,99640.09
2023-07-11T19:45:48.432Z,99639.38
2023-07-11T19:48:18.475Z,99635.69
2023-07-11T19:50:47.599Z,99629.53
2023-07-11T19:53:18.546Z,99635.59
2023-07-11T19:55:49.503Z,99638.06
2023-07-11T19:58:20.560Z,99639.47
2023-07-11T20:00:49.532Z,99648.69
2023-07-11T20:03:18.984Z,99639.81
2023-07-11T20:05:48.117Z,99633.28
2023-07-11T20:08:20.801Z,99647.94
2023-07-11T20:10:52.732Z,99655.56
2023-07-11T20:13:22.942Z,99662.34
2023-07-11T20:15:53.335Z,99651.81
2023-07-11T20:18:23.117Z,99656.72
2023-07-11T20:20:52.778Z,99645.38
2023-07-11T20:23:21.136Z,99651.59
2023-07-11T20:25:55.389Z,99647.03
2023-07-11T20:28:23.316Z,99635.44
2023-07-11T20:30:53.088Z,99633.53
2023-07-11T20:33:21.864Z,99628.69
2023-07-11T20:35:51.581Z,99632.41
2023-07-11T20:38:21.192Z,99628.66
2023-07-11T20:40:51.426Z,99619.50
2023-07-11T20:43:21.103Z,99615.97
2023-07-11T20:45:50.356Z,99590.59
2023-07-11T20:48:19.285Z,99597.09
2023-07-11T20:50:47.907Z,99583.03
2023-07-11T20:53:16.515Z,99569.03
2023-07-11T20:55:50.930Z,99586.00
2023-07-11T20:58:20.307Z,99590.06
2023-07-11T21:00:49.818Z,99566.34
2023-07-11T21:03:20.071Z,99580.38
2023-07-11T21:05:49.533Z,99573.63
2023-07-11T21:08:29.033Z,99591.13
2023-07-11T21:10:58.519Z,99592.22
2023-07-11T21:13:27.935Z,99581.41
2023-07-11T21:15:56.801Z,99574.41
2023-07-11T21:18:26.033Z,99569.81
2023-07-11T21:20:55.833Z,99589.75
2023-07-11T21:23:24.979Z,99583.56
2023-07-11T21:25:54.215Z,99578.16
2023-07-11T21:28:34.342Z,99589.22
2023-07-11T21:31:05.592Z,99586.25
2023-07-11T21:33:34.204Z,99588.66
2023-07-11T21:36:03.336Z,99590.03
2023-07-11T21:38:32.817Z,99594.56
2023-07-11T21:41:01.665Z,99598.63
2023-07-11T21:43:29.631Z,99586.75
2023-07-11T21:45:59.359Z,99590.25
2023-07-11T21:48:29.302Z,99594.53
2023-07-11T21:50:58.454Z,99589.97
2023-07-11T21:53:28.166Z,99589.41
2023-07-11T21:56:00.441Z,99585.31
2023-07-11T21:58:28.593Z,99583.41
2023-07-11T22:00:56.427Z,99580.41
2023-07-11T22:03:28.396Z,99580.66
2023-07-11T22:05:58.783Z,99574.69
2023-07-11T22:08:29.186Z,99585.44
2023-07-11T22:10:57.690Z,99569.50
2023-07-11T22:13:28.839Z,99557.66
2023-07-11T22:15:57.222Z,99554.13
2023-07-11T22:18:30.317Z,99548.94
2023-07-11T22:20:58.975Z,99537.59
2023-07-11T22:23:27.120Z,99532.75
2023-07-11T22:25:54.964Z,99527.34
2023-07-11T22:28:25.282Z,99538.63
2023-07-11T22:30:56.481Z,99538.31
2023-07-11T22:33:24.552Z,99533.47
2023-07-11T22:35:53.715Z,99528.56
2023-07-11T22:38:21.471Z,99523.72
2023-07-11T22:40:50.829Z,99521.28
2023-07-11T22:43:21.510Z,99516.16
2023-07-11T22:45:52.558Z,99519.66
2023-07-11T22:48:22.193Z,99514.75
2023-07-11T22:50:51.876Z,99519.88
2023-07-11T22:53:22.803Z,99522.25
2023-07-11T22:55:52.854Z,99520.63
2023-07-11T22:58:24.905Z,99522.22
2023-07-11T23:00:53.107Z,99524.38
2023-07-11T23:03:21.553Z,99519.81
2023-07-11T23:05:49.453Z,99515.00
2023-07-11T23:08:19.594Z,99507.72
2023-07-11T23:10:49.238Z,99506.09
2023-07-11T23:13:17.814Z,99505.28
2023-07-11T23:15:49.762Z,99503.94
2023-07-11T23:18:21.160Z,99508.78
2023-07-11T23:20:52.790Z,99497.72
2023-07-11T23:23:21.412Z,99493.13
2023-07-11T23:25:50.818Z,99504.69
2023-07-11T23:28:26.037Z,99506.25
2023-07-11T23:30:55.373Z,99500.84
2023-07-11T23:33:24.911Z,99498.66
2023-07-11T23:35:54.765Z,99495.38
2023-07-11T23:38:23.254Z,99486.72
2023-07-11T23:40:54.342Z,99494.56
2023-07-11T23:43:25.360Z,99489.47
2023-07-11T23:45:54.706Z,99487.84
2023-07-11T23:48:24.974Z,99485.41
2023-07-11T23:50:55.398Z,99487.28
2023-07-11T23:53:24.235Z,99484.31
2023-07-11T23:56:00.377Z,99489.38
2023-07-11T23:58:30.018Z,99500.94
